createdAt,value
2023-02-17T00:01:45.766Z,69.61
2023-02-17T00:04:14.500Z,69.58
2023-02-17T00:06:43.741Z,69.45
2023-02-17T00:09:13.161Z,69.57
2023-02-17T00:11:42.400Z,69.45
2023-02-17T00:14:14.599Z,69.57
2023-02-17T00:16:44.081Z,69.80
2023-02-17T00:19:27.137Z,69.43
2023-02-17T00:21:58.976Z,69.38
2023-02-17T00:24:31.243Z,69.45
2023-02-17T00:27:00.918Z,69.43
2023-02-17T00:29:29.999Z,69.52
2023-02-17T00:31:59.415Z,69.55
2023-02-17T00:34:28.799Z,69.62
2023-02-17T00:36:58.149Z,69.50
2023-02-17T00:39:28.874Z,69.58
2023-02-17T00:41:58.482Z,69.41
2023-02-17T00:44:27.651Z,69.68
2023-02-17T00:46:56.993Z,69.59
2023-02-17T00:49:27.869Z,69.63
2023-02-17T00:52:04.688Z,69.76
2023-02-17T00:54:36.278Z,69.93
2023-02-17T00:57:04.600Z,69.78
2023-02-17T04:02:07.446Z,70.28
2023-02-17T04:04:36.734Z,70.22
2023-02-17T04:07:06.405Z,70.18
2023-02-17T04:09:35.565Z,70.38
2023-02-17T04:12:05.049Z,70.41
2023-02-17T04:14:34.165Z,70.30
2023-02-17T04:17:03.312Z,70.30
2023-02-17T04:19:32.519Z,70.67
2023-02-17T04:22:02.127Z,70.50
2023-02-17T04:24:31.458Z,70.55
2023-02-17T04:27:00.837Z,70.59
2023-02-17T04:29:30.359Z,70.43
2023-02-17T04:31:59.791Z,70.45
2023-02-17T04:34:29.110Z,70.46
2023-02-17T04:36:58.375Z,70.45
2023-02-17T04:39:27.195Z,70.57
2023-02-17T04:41:56.389Z,70.53
2023-02-17T04:44:25.892Z,70.79
2023-02-17T04:46:55.090Z,70.60
2023-02-17T04:49:24.375Z,70.42
2023-02-17T04:51:53.696Z,70.61
2023-02-17T04:54:23.591Z,70.70
2023-02-17T04:56:52.752Z,70.35
2023-02-17T04:59:24.104Z,70.65
2023-02-17T05:01:55.090Z,70.90
2023-02-17T05:04:24.087Z,70.61
2023-02-17T05:06:52.779Z,70.85
2023-02-17T05:09:22.317Z,70.54
2023-02-17T05:11:51.503Z,70.77
2023-02-17T05:14:20.500Z,70.77
2023-02-17T05:16:50.016Z,70.56
2023-02-17T05:19:18.962Z,70.93
2023-02-17T05:21:48.278Z,70.90
2023-02-17T05:24:18.347Z,70.83
2023-02-17T05:26:47.508Z,70.96
2023-02-17T05:29:16.940Z,70.72
2023-02-17T05:31:46.283Z,70.60
2023-02-17T05:34:15.953Z,70.90
2023-02-17T05:36:45.181Z,70.62
2023-02-17T05:39:14.430Z,70.89
2023-02-17T05:41:43.542Z,70.67
2023-02-17T05:44:12.887Z,70.97
2023-02-17T05:46:42.287Z,70.63
2023-02-17T05:49:11.720Z,71.05
2023-02-17T05:51:40.985Z,70.92
2023-02-17T05:54:09.805Z,70.86
2023-02-17T05:56:38.283Z,70.92
2023-02-17T05:59:06.701Z,71.15
2023-02-17T06:01:37.340Z,70.95
2023-02-17T06:04:06.434Z,71.01
2023-02-17T06:06:35.940Z,71.07
2023-02-17T06:09:05.318Z,71.04
2023-02-17T06:11:33.963Z,70.89
2023-02-17T06:14:03.827Z,70.96
2023-02-17T06:16:33.232Z,70.74
2023-02-17T06:19:02.974Z,71.06
2023-02-17T06:21:33.283Z,70.89
2023-02-17T06:24:02.400Z,71.12
2023-02-17T06:26:31.577Z,70.90
2023-02-17T06:29:01.414Z,71.04
2023-02-17T06:31:30.715Z,71.16
2023-02-17T06:33:59.294Z,71.14
2023-02-17T06:36:28.585Z,70.88
2023-02-17T06:38:57.636Z,71.10
2023-02-17T06:41:27.055Z,70.99
2023-02-17T06:43:56.267Z,71.09
2023-02-17T06:46:25.090Z,70.93
2023-02-17T06:48:53.661Z,70.90
2023-02-17T06:51:23.140Z,71.10
2023-02-17T06:53:51.742Z,70.86
2023-02-17T06:56:21.350Z,70.87
2023-02-17T06:58:50.906Z,70.87
2023-02-17T07:01:24.229Z,71.01
2023-02-17T07:03:54.833Z,70.97
2023-02-17T07:06:26.058Z,71.16
2023-02-17T07:08:55.486Z,70.98
2023-02-17T07:11:24.670Z,71.01
2023-02-17T07:13:53.906Z,70.93
2023-02-17T07:16:23.209Z,71.05
2023-02-17T07:18:53.092Z,71.12
2023-02-17T07:21:22.695Z,71.08
2023-02-17T07:23:52.047Z,70.94
2023-02-17T07:26:21.205Z,71.06
2023-02-17T07:28:49.965Z,71.26
2023-02-17T07:31:18.722Z,71.33
2023-02-17T07:33:48.978Z,70.87
2023-02-17T07:36:18.204Z,71.06
2023-02-17T07:38:47.632Z,70.94
2023-02-17T07:41:19.003Z,70.91
2023-02-17T07:43:49.321Z,70.97
2023-02-17T07:46:19.036Z,71.10
2023-02-17T07:48:48.364Z,71.05
2023-02-17T07:51:22.412Z,70.99
2023-02-17T07:53:53.454Z,71.32
2023-02-17T07:56:24.115Z,71.16
2023-02-17T07:58:53.241Z,71.20
2023-02-17T08:01:24.689Z,71.09
2023-02-17T08:03:54.374Z,71.14
2023-02-17T08:06:25.714Z,70.99
2023-02-17T08:09:14.145Z,71.21
2023-02-17T08:12:03.682Z,71.23
2023-02-17T08:14:33.689Z,71.30
2023-02-17T08:17:02.857Z,71.36
2023-02-17T08:19:46.721Z,70.86
2023-02-17T08:22:17.902Z,70.94
2023-02-17T08:24:46.921Z,71.16
2023-02-17T08:27:17.128Z,71.25
2023-02-17T08:29:46.081Z,71.03
2023-02-17T08:32:17.416Z,71.15
2023-02-17T08:34:46.309Z,71.26
2023-02-17T08:37:15.499Z,71.40
2023-02-17T08:39:43.776Z,71.21
2023-02-17T08:42:12.836Z,71.32
2023-02-17T08:44:41.590Z,71.38
2023-02-17T08:47:10.817Z,71.35
2023-02-17T08:49:40.767Z,71.25
2023-02-17T08:52:10.184Z,71.00
2023-02-17T08:54:39.713Z,71.13
2023-02-17T08:57:08.896Z,71.23
2023-02-17T08:59:37.209Z,71.31
2023-02-17T09:02:07.271Z,71.18
2023-02-17T09:04:36.820Z,71.22
2023-02-17T09:07:09.723Z,70.91
2023-02-17T09:09:39.578Z,71.09
2023-02-17T09:12:08.989Z,71.24
2023-02-17T09:14:38.579Z,71.53
2023-02-17T09:17:07.984Z,71.16
2023-02-17T09:19:39.961Z,71.43
2023-02-17T09:22:08.883Z,71.36
2023-02-17T09:24:39.482Z,71.41
2023-02-17T09:27:08.589Z,71.30
2023-02-17T09:29:38.773Z,71.28
2023-02-17T09:32:11.000Z,71.32
2023-02-17T09:34:42.346Z,71.24
2023-02-17T09:37:13.086Z,71.70
2023-02-17T09:39:42.440Z,71.54
2023-02-17T09:42:23.755Z,71.24
2023-02-17T09:45:11.872Z,71.49
2023-02-17T09:47:47.654Z,71.65
2023-02-17T09:50:23.174Z,71.20
2023-02-17T09:53:28.185Z,71.43
2023-02-17T09:56:02.520Z,71.47
2023-02-17T09:58:58.920Z,71.40
2023-02-17T10:01:34.544Z,71.40
2023-02-17T10:04:11.944Z,71.59
2023-02-17T10:06:46.916Z,71.40
2023-02-17T10:09:24.482Z,71.59
2023-02-17T10:12:02.420Z,71.36
2023-02-17T10:14:53.973Z,71.35
2023-02-17T10:17:28.382Z,71.72
2023-02-17T10:20:12.829Z,71.78
2023-02-17T10:22:52.079Z,71.67
2023-02-17T10:25:40.297Z,71.73
2023-02-17T10:28:19.126Z,71.35
2023-02-17T10:30:56.109Z,71.82
2023-02-17T10:33:37.035Z,71.52
2023-02-17T10:36:29.362Z,71.56
2023-02-17T10:39:09.421Z,71.76
2023-02-17T10:41:41.616Z,71.71
2023-02-17T10:44:18.260Z,71.60
2023-02-17T10:46:49.278Z,71.93
2023-02-17T10:49:39.393Z,71.71
2023-02-17T10:52:17.528Z,71.81
2023-02-17T10:55:00.464Z,71.42
2023-02-17T10:57:35.923Z,71.50
2023-02-17T11:00:09.901Z,71.64
2023-02-17T11:02:47.212Z,71.90
2023-02-17T11:05:34.113Z,71.68
2023-02-17T11:08:07.833Z,71.84
2023-02-17T11:10:38.490Z,71.72
2023-02-17T11:13:37.925Z,71.93
2023-02-17T11:16:07.146Z,72.03
2023-02-17T11:18:43.094Z,71.90
2023-02-17T11:21:11.768Z,72.13
2023-02-17T11:23:59.976Z,71.87
2023-02-17T11:26:33.104Z,71.99
2023-02-17T11:29:21.385Z,71.73
2023-02-17T11:32:08.500Z,71.95
2023-02-17T11:34:40.574Z,71.96
2023-02-17T11:37:11.966Z,71.69
2023-02-17T11:39:43.746Z,71.97
2023-02-17T11:42:17.701Z,71.96
2023-02-17T11:44:47.165Z,71.90
2023-02-17T11:47:31.297Z,71.93
2023-02-17T11:50:05.471Z,72.00
2023-02-17T11:52:58.932Z,72.00
2023-02-17T11:55:42.852Z,72.07
2023-02-17T11:58:20.380Z,72.08
2023-02-17T12:00:58.487Z,72.11
2023-02-17T12:03:34.652Z,72.14
2023-02-17T12:06:32.153Z,72.31
2023-02-17T12:09:08.077Z,72.35
2023-02-17T12:11:54.997Z,72.07
2023-02-17T12:14:32.937Z,72.01
2023-02-17T12:17:15.238Z,72.19
2023-02-17T12:20:22.082Z,72.18
2023-02-17T12:23:08.487Z,72.38
2023-02-17T12:25:48.152Z,72.22
2023-02-17T12:28:22.699Z,72.39
2023-02-17T12:31:11.180Z,72.50
2023-02-17T12:34:03.988Z,72.30
2023-02-17T12:36:36.930Z,72.42
2023-02-17T12:39:55.019Z,72.55
2023-02-17T12:42:39.093Z,72.64
2023-02-17T12:45:16.334Z,72.48
2023-02-17T12:47:44.593Z,72.51
2023-02-17T12:50:39.283Z,72.58
2023-02-17T12:53:17.694Z,72.55
2023-02-17T12:55:58.468Z,72.55
2023-02-17T12:58:29.560Z,72.32
2023-02-17T13:01:11.268Z,72.23
2023-02-17T13:03:40.631Z,72.57
2023-02-17T13:06:37.314Z,72.43
2023-02-17T13:09:15.935Z,72.45
2023-02-17T13:11:51.381Z,72.47
2023-02-17T13:14:30.614Z,72.82
2023-02-17T13:16:59.840Z,72.78
2023-02-17T13:19:35.361Z,72.66
2023-02-17T13:22:06.081Z,72.62
2023-02-17T13:24:40.416Z,72.46
2023-02-17T13:27:37.740Z,72.82
2023-02-17T13:30:07.096Z,72.62
2023-02-17T13:32:38.797Z,72.79
2023-02-17T13:35:31.217Z,72.78
2023-02-17T13:38:00.663Z,72.68
2023-02-17T13:40:34.971Z,72.90
2023-02-17T13:43:19.348Z,72.76
2023-02-17T13:46:01.973Z,72.99
2023-02-17T13:48:37.842Z,72.86
2023-02-17T13:51:28.119Z,73.28
2023-02-17T13:54:09.897Z,72.75
2023-02-17T13:56:42.685Z,73.06
2023-02-17T13:59:27.887Z,73.11
2023-02-17T14:02:00.410Z,72.92
2023-02-17T14:04:33.369Z,73.17
2023-02-17T14:07:06.481Z,72.78
2023-02-17T14:09:35.887Z,73.06
2023-02-17T14:12:07.794Z,73.13
2023-02-17T14:14:38.360Z,72.82
2023-02-17T14:17:13.937Z,73.11
2023-02-17T14:19:46.066Z,73.17
2023-02-17T14:22:29.917Z,73.14
2023-02-17T14:25:14.266Z,73.03
2023-02-17T14:27:46.355Z,73.09
2023-02-17T14:30:28.646Z,73.03
2023-02-17T14:33:18.591Z,73.12
2023-02-17T14:36:07.316Z,73.09
2023-02-17T14:38:43.156Z,73.18
2023-02-17T14:41:12.318Z,73.06
2023-02-17T14:43:41.158Z,73.01
2023-02-17T14:46:10.131Z,73.12
2023-02-17T14:48:38.745Z,73.19
2023-02-17T14:51:17.901Z,73.10
2023-02-17T14:53:47.031Z,73.03
2023-02-17T14:56:37.804Z,73.17
2023-02-17T14:59:06.253Z,73.41
2023-02-17T15:01:34.878Z,73.37
2023-02-17T15:04:03.148Z,73.26
2023-02-17T15:06:41.243Z,73.40
2023-02-17T15:09:13.390Z,73.25
2023-02-17T15:11:45.761Z,73.10
2023-02-17T15:14:17.681Z,73.31
2023-02-17T15:16:47.726Z,73.44
2023-02-17T15:19:20.356Z,73.31
2023-02-17T15:21:52.655Z,73.46
2023-02-17T15:24:27.066Z,73.35
2023-02-17T15:26:57.643Z,73.23
2023-02-17T15:29:30.591Z,73.52
2023-02-17T15:32:11.219Z,73.36
2023-02-17T15:34:40.379Z,73.37
2023-02-17T15:37:10.454Z,73.35
2023-02-17T15:39:39.524Z,73.46
2023-02-17T15:42:13.941Z,73.69
2023-02-17T15:44:50.003Z,73.58
2023-02-17T15:47:20.705Z,73.76
2023-02-17T15:49:50.107Z,73.81
2023-02-17T15:52:19.058Z,73.84
2023-02-17T15:54:48.587Z,73.76
2023-02-17T15:57:25.408Z,73.59
2023-02-17T15:59:57.886Z,73.71
2023-02-17T16:02:26.413Z,73.70
2023-02-17T16:04:55.681Z,73.52
2023-02-17T16:07:26.939Z,73.78
2023-02-17T16:09:56.232Z,73.68
2023-02-17T16:12:27.948Z,73.76
2023-02-17T16:14:58.838Z,73.61
2023-02-17T16:17:27.846Z,73.69
2023-02-17T16:19:56.775Z,73.86
2023-02-17T16:22:25.592Z,74.00
2023-02-17T16:24:54.849Z,73.59
2023-02-17T16:27:25.338Z,73.62
2023-02-17T16:29:53.902Z,74.04
2023-02-17T16:32:22.518Z,73.96
2023-02-17T16:34:51.500Z,73.84
2023-02-17T16:37:19.854Z,74.02
2023-02-17T16:39:48.840Z,73.89
2023-02-17T16:42:17.620Z,73.65
2023-02-17T16:44:47.198Z,73.89
2023-02-17T16:47:21.304Z,73.70
2023-02-17T16:49:50.698Z,73.98
2023-02-17T16:52:27.511Z,73.92
2023-02-17T16:54:56.576Z,73.92
2023-02-17T16:57:26.584Z,74.05
2023-02-17T16:59:56.112Z,73.90
2023-02-17T17:02:25.215Z,74.14
2023-02-17T17:04:53.790Z,74.28
2023-02-17T17:07:22.619Z,73.95
2023-02-17T17:10:14.756Z,73.99
2023-02-17T17:12:40.731Z,74.27
2023-02-17T17:15:10.161Z,74.14
2023-02-17T17:17:44.993Z,74.27
2023-02-17T17:20:20.227Z,74.21
2023-02-17T17:22:49.509Z,74.08
2023-02-17T17:25:18.143Z,74.14
2023-02-17T17:27:46.679Z,74.26
2023-02-17T17:30:22.197Z,74.33
2023-02-17T17:32:52.068Z,74.19
2023-02-17T17:35:22.351Z,74.39
2023-02-17T17:37:51.332Z,74.48
2023-02-17T17:40:49.100Z,74.45
2023-02-17T17:43:21.575Z,74.62
2023-02-17T17:45:52.277Z,74.33
2023-02-17T17:48:21.370Z,74.30
2023-02-17T17:50:50.697Z,74.57
2023-02-17T17:53:19.884Z,74.58
2023-02-17T17:55:49.305Z,74.47
2023-02-17T17:58:17.857Z,74.64
2023-02-17T18:00:47.030Z,74.57
2023-02-17T18:03:16.257Z,74.78
2023-02-17T18:05:45.656Z,74.79
2023-02-17T18:08:14.417Z,74.84
2023-02-17T18:10:43.758Z,74.79
2023-02-17T18:13:14.284Z,74.61
2023-02-17T18:15:44.343Z,74.92
2023-02-17T18:18:13.804Z,74.72
2023-02-17T18:20:42.936Z,74.78
2023-02-17T18:23:11.783Z,75.03
2023-02-17T18:25:40.514Z,75.11
2023-02-17T18:28:09.433Z,74.97
2023-02-17T18:30:38.435Z,74.91
2023-02-17T18:33:07.314Z,74.98
2023-02-17T18:35:38.924Z,75.22
2023-02-17T18:38:08.662Z,75.03
2023-02-17T18:40:42.499Z,75.03
2023-02-17T18:43:11.682Z,75.11
2023-02-17T18:45:40.682Z,75.02
2023-02-17T18:48:09.636Z,74.90
2023-02-17T18:50:37.999Z,75.13
2023-02-17T18:53:07.016Z,75.03
2023-02-17T18:55:39.473Z,75.31
2023-02-17T18:58:08.055Z,75.16
2023-02-17T19:00:37.113Z,75.31
2023-02-17T19:03:05.582Z,75.17
2023-02-17T19:05:34.815Z,75.08
2023-02-17T19:08:04.035Z,75.19
2023-02-17T19:10:34.381Z,75.20
2023-02-17T19:13:03.990Z,75.22
2023-02-17T19:15:34.155Z,75.18
2023-02-17T19:18:03.784Z,75.34
2023-02-17T19:20:33.058Z,75.40
2023-02-17T19:23:02.962Z,75.42
2023-02-17T19:25:32.252Z,75.34
2023-02-17T19:28:01.264Z,75.44
2023-02-17T19:30:30.250Z,75.37
2023-02-17T19:32:58.858Z,75.57
2023-02-17T19:35:27.560Z,75.39
2023-02-17T19:37:56.009Z,75.39
2023-02-17T19:40:24.375Z,75.40
2023-02-17T19:42:52.658Z,75.44
2023-02-17T19:45:21.282Z,75.44
2023-02-17T19:47:50.942Z,75.38
2023-02-17T19:50:20.863Z,75.41
2023-02-17T19:52:49.424Z,75.48
2023-02-17T19:55:19.065Z,75.55
2023-02-17T19:57:54.021Z,75.49
2023-02-17T20:00:28.448Z,75.57
2023-02-17T20:03:07.975Z,75.50
2023-02-17T20:05:50.881Z,75.51
2023-02-17T20:08:31.151Z,75.47
2023-02-17T20:11:10.994Z,75.16
2023-02-17T20:13:48.311Z,74.97
2023-02-17T20:16:24.746Z,74.54
2023-02-17T20:19:04.081Z,74.40
2023-02-17T20:21:41.982Z,74.50
2023-02-17T20:24:19.858Z,74.38
2023-02-17T20:26:58.735Z,74.43
2023-02-17T20:29:32.254Z,74.58
2023-02-17T20:32:07.667Z,74.83
2023-02-17T20:34:45.995Z,74.77
2023-02-17T20:37:22.170Z,74.49
2023-02-17T20:39:58.056Z,74.22
2023-02-17T20:42:31.365Z,74.29
2023-02-17T20:45:00.350Z,74.15
2023-02-17T20:47:29.781Z,74.06
2023-02-17T20:49:59.242Z,74.23
2023-02-17T20:52:28.645Z,74.24
2023-02-17T20:54:57.544Z,74.01
2023-02-17T20:57:27.582Z,73.91
2023-02-17T20:59:56.067Z,73.63
2023-02-17T21:02:25.255Z,73.52
2023-02-17T21:04:55.993Z,73.56
2023-02-17T21:07:26.843Z,73.48
2023-02-17T21:09:57.298Z,73.46
2023-02-17T21:12:31.253Z,73.17
2023-02-17T21:15:01.375Z,73.22
2023-02-17T21:17:31.005Z,73.12
2023-02-17T21:20:01.715Z,73.28
2023-02-17T21:22:32.577Z,73.34
2023-02-17T21:25:01.354Z,73.22
2023-02-17T21:27:30.855Z,73.33
2023-02-17T21:30:00.128Z,73.15
2023-02-17T21:32:28.939Z,73.53
2023-02-17T21:34:57.877Z,73.60
2023-02-17T21:37:26.757Z,73.38
2023-02-17T21:39:55.503Z,73.56
2023-02-17T21:42:45.710Z,73.56
2023-02-17T21:45:15.327Z,73.35
2023-02-17T21:47:44.300Z,73.47
2023-02-17T21:50:13.896Z,73.47
2023-02-17T21:52:43.048Z,73.85
2023-02-17T21:55:12.804Z,73.19
2023-02-17T21:57:43.925Z,72.95
2023-02-17T22:00:16.760Z,72.75
2023-02-17T22:02:46.561Z,72.30
2023-02-17T22:05:15.511Z,72.27
2023-02-17T22:07:44.107Z,71.95
2023-02-17T22:10:12.870Z,71.92
2023-02-17T22:12:41.065Z,71.54
2023-02-17T22:15:11.420Z,71.65
2023-02-17T22:17:40.470Z,71.53
2023-02-17T22:20:10.405Z,71.41
2023-02-17T22:22:39.187Z,71.10
2023-02-17T22:25:08.561Z,71.19
2023-02-17T22:27:37.070Z,71.22
2023-02-17T22:30:09.777Z,71.46
2023-02-17T22:32:40.880Z,71.74
2023-02-17T22:35:10.777Z,71.29
2023-02-17T22:37:40.454Z,71.72
2023-02-17T22:40:13.009Z,71.46
2023-02-17T22:42:41.914Z,71.44
2023-02-17T22:45:10.785Z,71.47
2023-02-17T22:47:39.287Z,71.32
2023-02-17T22:50:08.270Z,71.47
2023-02-17T22:52:37.127Z,71.29
2023-02-17T22:55:06.615Z,71.39
2023-02-17T22:57:36.194Z,71.40
2023-02-17T23:00:05.768Z,71.29
2023-02-17T23:02:35.824Z,71.37
2023-02-17T23:05:09.261Z,71.33
2023-02-17T23:07:38.097Z,70.93
2023-02-17T23:10:08.191Z,71.22
2023-02-17T23:12:37.390Z,71.00
2023-02-17T23:15:07.019Z,70.85
2023-02-17T23:17:55.881Z,70.85
2023-02-17T23:20:25.916Z,70.52
2023-02-17T23:22:54.713Z,70.75
2023-02-17T23:25:24.511Z,70.73
2023-02-17T23:27:54.266Z,70.80
2023-02-17T23:30:23.818Z,70.76
2023-02-17T23:32:53.207Z,70.77
2023-02-17T23:35:22.460Z,70.89
2023-02-17T23:37:53.075Z,70.28
2023-02-17T23:40:22.297Z,70.57
2023-02-17T23:42:50.610Z,70.59
2023-02-17T23:45:19.745Z,70.46
2023-02-17T23:47:48.427Z,70.53
2023-02-17T23:50:17.728Z,70.45
2023-02-17T23:52:47.299Z,70.72
2023-02-17T23:55:16.720Z,70.33
2023-02-17T23:57:46.386Z,70.30
